createdAt,value
2018-04-01T00:00:01.833Z,2
2018-04-01T00:05:01.657Z,2
2018-04-01T00:10:02.686Z,1.9
2018-04-01T00:15:01.702Z,1.9
2018-04-01T00:20:02.310Z,1.9
2018-04-01T00:25:01.698Z,1.9
2018-04-01T00:30:02.101Z,1.9
2018-04-01T00:35:01.461Z,1.9
2018-04-01T00:40:01.612Z,2
2018-04-01T00:45:01.828Z,1.9
2018-04-01T00:50:01.908Z,2
2018-04-01T00:55:01.462Z,1.9
2018-04-01T01:00:01.793Z,2
2018-04-01T01:05:02.326Z,2
2018-04-01T01:10:01.942Z,1.9
2018-04-01T01:15:01.846Z,1.9
2018-04-01T01:20:02.083Z,1.9
2018-04-01T01:25:02.221Z,1.9
2018-04-01T01:30:01.513Z,1.9
2018-04-01T01:35:02.099Z,1.9
2018-04-01T01:40:01.629Z,1.9
2018-04-01T01:45:02.018Z,1.9
2018-04-01T01:50:01.882Z,1.9
2018-04-01T01:55:01.540Z,1.9
2018-04-01T02:00:01.834Z,2
2018-04-01T02:05:01.380Z,2
2018-04-01T02:10:01.368Z,1.9
2018-04-01T02:15:02.129Z,2
2018-04-01T02:20:01.977Z,1.9
2018-04-01T02:25:02.126Z,1.9
2018-04-01T02:30:02.368Z,1.9
2018-04-01T02:35:01.748Z,1.9
2018-04-01T02:40:01.810Z,1.9
2018-04-01T02:45:02.072Z,1.8
2018-04-01T02:50:01.883Z,1.8
2018-04-01T02:55:01.188Z,1.8
2018-04-01T03:00:01.801Z,1.9
2018-04-01T03:05:02.562Z,1.8
2018-04-01T03:10:01.308Z,1.8
2018-04-01T03:15:01.576Z,1.8
2018-04-01T03:20:01.611Z,1.8
2018-04-01T03:25:02.410Z,1.8
2018-04-01T03:30:01.801Z,1.8
2018-04-01T03:35:01.696Z,1.9
2018-04-01T03:40:01.523Z,1.8
2018-04-01T03:45:01.634Z,1.8
2018-04-01T03:50:01.979Z,1.8
2018-04-01T03:55:01.747Z,1.8
2018-04-01T04:00:02.597Z,1.8
2018-04-01T04:05:01.666Z,1.8
2018-04-01T04:10:01.565Z,1.8
2018-04-01T04:15:01.777Z,1.7
2018-04-01T04:20:02.399Z,1.7
2018-04-01T04:25:01.326Z,1.7
2018-04-01T04:30:01.320Z,1.7
2018-04-01T04:35:01.235Z,1.7
2018-04-01T04:40:01.720Z,1.7
2018-04-01T04:45:02.156Z,1.8
2018-04-01T04:50:01.799Z,1.8
2018-04-01T04:55:01.679Z,1.7
2018-04-01T05:00:02.055Z,1.8
2018-04-01T05:05:01.377Z,1.8
2018-04-01T05:10:01.760Z,1.8
2018-04-01T05:15:01.649Z,1.8
2018-04-01T05:20:02.171Z,1.8
2018-04-01T05:25:01.571Z,1.9
2018-04-01T05:30:01.611Z,1.9
2018-04-01T05:35:02.045Z,1.9
2018-04-01T05:40:01.726Z,2
2018-04-01T05:45:02.250Z,2
2018-04-01T05:50:01.420Z,2
2018-04-01T05:55:02.047Z,2
2018-04-01T06:00:02.553Z,2
2018-04-01T06:05:02.138Z,2
2018-04-01T06:10:02.014Z,2.1
2018-04-01T06:15:01.258Z,2.2
2018-04-01T06:20:01.959Z,2.2
2018-04-01T06:25:01.351Z,2.2
2018-04-01T06:30:01.587Z,2.3
2018-04-01T06:35:02.507Z,2.4
2018-04-01T06:40:01.776Z,2.5
2018-04-01T06:45:01.418Z,2.6
2018-04-01T06:50:01.647Z,2.6
2018-04-01T06:55:01.722Z,2.6
2018-04-01T07:00:02.157Z,2.6
2018-04-01T07:05:01.415Z,2.7
2018-04-01T07:10:02.486Z,2.8
2018-04-01T07:15:01.403Z,2.9
2018-04-01T07:20:01.635Z,3
2018-04-01T07:25:01.259Z,3
2018-04-01T07:30:02.175Z,3
2018-04-01T07:35:02.185Z,3.1
2018-04-01T07:40:01.250Z,3.1
2018-04-01T07:45:01.880Z,3.1
2018-04-01T07:50:02.533Z,3.1
2018-04-01T07:55:01.481Z,3.4
2018-04-01T08:00:01.951Z,3.5
2018-04-01T08:05:01.786Z,3.6
2018-04-01T08:10:02.433Z,3.8
2018-04-01T08:15:02.082Z,3.8
2018-04-01T08:20:01.958Z,4
2018-04-01T08:25:01.940Z,4.1
2018-04-01T08:30:01.705Z,4.2
2018-04-01T08:35:02.076Z,4.4
2018-04-01T08:40:01.502Z,4.5
2018-04-01T08:45:03.470Z,4.6
2018-04-01T08:50:01.962Z,4.5
2018-04-01T08:55:02.013Z,4.6
2018-04-01T09:00:01.353Z,4.6
2018-04-01T09:05:02.245Z,4.8
2018-04-01T09:10:02.289Z,4.8
2018-04-01T09:15:02.052Z,4.9
2018-04-01T09:20:01.993Z,4.8
2018-04-01T09:25:01.842Z,4.8
2018-04-01T09:30:01.228Z,4.9
2018-04-01T09:35:02.622Z,5.2
2018-04-01T09:40:01.480Z,5.2
2018-04-01T09:45:01.616Z,5.2
2018-04-01T09:50:01.724Z,5.1
2018-04-01T09:55:01.874Z,5.1
2018-04-01T10:00:01.310Z,5.1
2018-04-01T10:05:01.187Z,5
2018-04-01T10:10:01.605Z,4.9
2018-04-01T10:15:01.658Z,5.4
2018-04-01T10:20:01.726Z,5.4
2018-04-01T10:25:02.556Z,5.7
2018-04-01T10:30:02.013Z,6.5
2018-04-01T10:35:01.633Z,6.9
2018-04-01T10:40:01.627Z,6.7
2018-04-01T10:45:02.191Z,6.7
2018-04-01T10:50:01.166Z,6.3
2018-04-01T10:55:01.824Z,6.1
2018-04-01T11:00:01.532Z,6.2
2018-04-01T11:05:02.328Z,6.5
2018-04-01T11:10:01.955Z,6.7
2018-04-01T11:15:01.553Z,6.7
2018-04-01T11:20:01.498Z,6.5
2018-04-01T11:25:02.217Z,6.3
2018-04-01T11:30:01.784Z,6.3
2018-04-01T11:35:01.636Z,6.2
2018-04-01T11:40:01.461Z,6.3
2018-04-01T11:45:01.482Z,6.2
2018-04-01T11:50:01.380Z,6.3
2018-04-01T11:55:01.474Z,6.3
2018-04-01T12:00:02.559Z,6.5
2018-04-01T12:05:01.642Z,6.7
2018-04-01T12:10:01.637Z,6.8
2018-04-01T12:15:01.614Z,7
2018-04-01T12:20:01.797Z,6.2
2018-04-01T12:25:02.025Z,6.1
2018-04-01T12:30:01.473Z,5.7
2018-04-01T12:35:01.779Z,5.4
2018-04-01T12:40:01.580Z,5.1
2018-04-01T12:45:01.847Z,5
2018-04-01T12:50:02.314Z,4.9
2018-04-01T12:55:01.856Z,4.8
2018-04-01T13:00:01.407Z,4.5
2018-04-01T13:05:01.421Z,4.5
2018-04-01T13:10:01.702Z,4.6
2018-04-01T13:15:01.628Z,4.8
2018-04-01T13:20:01.426Z,5.2
2018-04-01T13:25:02.211Z,5.2
2018-04-01T13:30:01.627Z,5.1
2018-04-01T13:35:02.095Z,5.2
2018-04-01T13:40:01.873Z,5.3
2018-04-01T13:45:02.133Z,5.6
2018-04-01T13:50:01.304Z,5.8
2018-04-01T13:55:01.738Z,6.4
2018-04-01T14:00:01.264Z,7
2018-04-01T14:05:02.714Z,8
2018-04-01T14:10:01.458Z,8.9
2018-04-01T14:15:01.787Z,8.4
2018-04-01T14:20:02.238Z,7.9
2018-04-01T14:25:02.274Z,8.3
2018-04-01T14:30:01.663Z,8.1
2018-04-01T14:35:01.445Z,8.1
2018-04-01T14:40:01.526Z,10.2
2018-04-01T14:45:01.560Z,10.3
2018-04-01T14:50:01.730Z,10.3
2018-04-01T14:55:01.576Z,9.9
2018-04-01T15:00:01.616Z,8.9
2018-04-01T15:05:01.688Z,8
2018-04-01T15:10:02.523Z,7.9
2018-04-01T15:15:02.241Z,8.8
2018-04-01T15:20:01.906Z,8.6
2018-04-01T15:25:01.900Z,8.2
2018-04-01T15:30:01.650Z,7.6
2018-04-01T15:35:02.375Z,7.4
2018-04-01T15:40:01.386Z,7
2018-04-01T15:45:01.900Z,7
2018-04-01T15:50:02.048Z,6.9
2018-04-01T15:55:02.560Z,6.9
2018-04-01T16:00:01.509Z,8.7
2018-04-01T16:05:01.748Z,14
2018-04-01T16:10:01.718Z,14.9
2018-04-01T16:15:02.282Z,11.8
2018-04-01T16:20:02.037Z,10.6
2018-04-01T16:25:01.759Z,10.7
2018-04-01T16:30:01.219Z,13.1
2018-04-01T16:35:01.993Z,13.8
2018-04-01T16:40:01.952Z,12.8
2018-04-01T16:45:01.461Z,10
2018-04-01T16:50:02.144Z,8.4
2018-04-01T16:55:02.188Z,8
2018-04-01T17:00:01.665Z,7.3
2018-04-01T17:05:01.322Z,6.5
2018-04-01T17:10:01.725Z,6.2
2018-04-01T17:15:01.396Z,6
2018-04-01T17:20:01.322Z,5.7
2018-04-01T17:25:01.642Z,5.4
2018-04-01T17:30:02.063Z,5.2
2018-04-01T17:35:01.650Z,5
2018-04-01T17:40:01.724Z,4.6
2018-04-01T17:45:01.961Z,4.4
2018-04-01T17:55:01.856Z,3.9
2018-04-01T18:00:01.855Z,3.9
2018-04-01T18:05:01.225Z,3.9
2018-04-01T18:10:02.064Z,3.9
2018-04-01T18:15:01.955Z,3.9
2018-04-01T18:20:01.459Z,3.9
2018-04-01T18:25:01.699Z,3.9
2018-04-01T18:30:01.882Z,3.8
2018-04-01T18:35:01.696Z,3.8
2018-04-01T18:40:01.731Z,3.7
2018-04-01T18:45:02.008Z,3.6
2018-04-01T18:50:01.593Z,3.4
2018-04-01T18:55:02.286Z,3.2
2018-04-01T19:00:01.769Z,3
2018-04-01T19:05:02.055Z,2.9
2018-04-01T19:10:01.954Z,2.7
2018-04-01T19:15:01.583Z,2.5
2018-04-01T19:20:02.169Z,2.4
2018-04-01T19:25:01.679Z,2.3
2018-04-01T19:30:02.447Z,2.2
2018-04-01T19:35:01.667Z,2.2
2018-04-01T19:40:02.180Z,2.2
2018-04-01T19:45:01.641Z,2.1
2018-04-01T19:50:02.064Z,2.1
2018-04-01T19:55:01.646Z,2.1
2018-04-01T20:00:01.643Z,2.1
2018-04-01T20:05:02.037Z,2.2
2018-04-01T20:10:01.889Z,2.3
2018-04-01T20:15:01.542Z,2.4
2018-04-01T20:20:02.115Z,2.6
2018-04-01T20:25:02.049Z,2.6
2018-04-01T20:30:02.658Z,2.7
2018-04-01T20:35:02.460Z,2.8
2018-04-01T20:40:03.394Z,2.9
2018-04-01T20:45:01.808Z,3
2018-04-01T20:50:03.730Z,3
2018-04-01T20:55:02.146Z,3.1
2018-04-01T21:00:03.556Z,3.1
2018-04-01T21:05:02.351Z,3.1
2018-04-01T21:10:02.137Z,3.1
2018-04-01T21:15:02.184Z,3.1
2018-04-01T21:20:01.239Z,3.1
2018-04-01T21:25:02.231Z,3
2018-04-01T21:30:01.424Z,3
2018-04-01T21:35:01.553Z,2.9
2018-04-01T21:40:01.416Z,2.8
2018-04-01T21:45:02.291Z,2.7
2018-04-01T21:50:01.899Z,2.5
2018-04-01T21:55:01.859Z,2.4
2018-04-01T22:00:01.982Z,2.2
2018-04-01T22:05:02.603Z,2.1
2018-04-01T22:10:01.363Z,2
2018-04-01T22:15:01.581Z,1.9
2018-04-01T22:20:01.710Z,1.8
2018-04-01T22:25:01.913Z,1.7
2018-04-01T22:30:01.666Z,1.7
2018-04-01T22:35:01.537Z,1.6
2018-04-01T22:40:02.057Z,1.5
2018-04-01T22:45:01.365Z,1.5
2018-04-01T22:50:01.203Z,1.3
2018-04-01T22:55:02.408Z,1.3
2018-04-01T23:00:01.230Z,1.2
2018-04-01T23:05:02.034Z,1.2
2018-04-01T23:10:01.918Z,1.1
2018-04-01T23:15:02.280Z,1
2018-04-01T23:20:01.428Z,1
2018-04-01T23:25:01.846Z,1
2018-04-01T23:30:01.253Z,0.9
2018-04-01T23:35:02.505Z,0.9
2018-04-01T23:40:02.139Z,0.9
2018-04-01T23:45:02.135Z,0.8
2018-04-01T23:50:01.907Z,0.8
2018-04-01T23:55:02.462Z,0.8
